Time;durP1;ratioP1;P1;durP2;ratioP2;P2;SDS_P1;SDS_P2;PMS_P1;PMS_P2;Temp;Humidity;BMP_temperature;BMP_pressure;BME280_temperature;BME280_humidity;BME280_pressure;Samples;Min_cycle;Max_cycle;Signal;HPM_P1;HPM_P2
2022/08/21 00:00:18;;;;;;;33.37;4.70;;;15.00;99.90;;;;;;5029589;28;20427;-61
2022/08/21 00:02:54;;;;;;;6.90;3.50;;;15.00;99.90;;;;;;5025628;28;20183;-61
2022/08/21 00:05:20;;;;;;;6.47;3.60;;;15.00;99.90;;;;;;5020691;28;20564;-62
2022/08/21 00:07:46;;;;;;;21.73;4.00;;;15.00;99.90;;;;;;5026578;28;20446;-63
2022/08/21 00:10:13;;;;;;;12.63;3.43;;;15.00;99.90;;;;;;5029179;28;20442;-60
2022/08/21 00:12:40;;;;;;;15.53;3.53;;;15.00;99.90;;;;;;5024263;28;20302;-60
2022/08/21 00:15:08;;;;;;;15.40;3.27;;;15.00;99.90;;;;;;5021861;28;20556;-60
2022/08/21 00:17:34;;;;;;;3.50;3.00;;;15.00;99.90;;;;;;5024310;28;20425;-63
2022/08/21 00:20:00;;;;;;;18.70;3.50;;;15.00;99.90;;;;;;5024274;28;20435;-61
2022/08/21 00:22:26;;;;;;;8.33;2.97;;;15.00;99.90;;;;;;5024848;28;20421;-62
2022/08/21 00:24:51;;;;;;;10.70;3.10;;;15.00;99.90;;;;;;5020449;28;20680;-60
2022/08/21 00:27:17;;;;;;;2.90;2.70;;;15.00;99.90;;;;;;5022244;28;20691;-62
2022/08/21 00:29:42;;;;;;;3.70;2.80;;;15.00;99.90;;;;;;5027382;28;20190;-55
2022/08/21 00:32:08;;;;;;;10.20;3.40;;;15.00;99.90;;;;;;5020874;28;20176;-61
2022/08/21 00:34:34;;;;;;;38.07;3.93;;;15.00;99.90;;;;;;5028258;28;20176;-64
2022/08/21 00:37:00;;;;;;;57.70;4.90;;;15.00;99.90;;;;;;5032989;28;20190;-63
2022/08/21 00:39:25;;;;;;;9.17;2.90;;;14.90;99.90;;;;;;5034786;28;20262;-63
2022/08/21 00:41:51;;;;;;;3.83;2.30;;;14.80;99.90;;;;;;5024428;28;20184;-61
2022/08/21 00:44:17;;;;;;;2.40;2.20;;;14.80;99.90;;;;;;5025849;28;20192;-61
2022/08/21 00:46:43;;;;;;;2.50;2.30;;;14.80;99.90;;;;;;5015865;28;20196;-61
2022/08/21 00:49:11;;;;;;;8.73;2.50;;;14.80;99.90;;;;;;5032471;28;20683;-60
2022/08/21 00:51:41;;;;;;;8.43;2.47;;;14.80;99.90;;;;;;5031186;28;20438;-59
2022/08/21 00:54:09;;;;;;;7.60;2.23;;;14.80;99.90;;;;;;5029308;28;20532;-61
2022/08/21 00:56:35;;;;;;;3.23;2.37;;;14.80;99.90;;;;;;5032176;28;20466;-61
2022/08/21 00:59:01;;;;;;;8.43;2.40;;;14.80;99.90;;;;;;5031460;28;20488;-62
2022/08/21 01:01:27;;;;;;;5.90;2.23;;;14.80;99.90;;;;;;5031065;28;20179;-62
2022/08/21 01:03:53;;;;;;;15.90;2.20;;;14.70;99.90;;;;;;5025868;28;20529;-59
2022/08/21 01:06:19;;;;;;;19.57;2.77;;;14.70;99.90;;;;;;5032421;28;20593;-61
2022/08/21 01:08:45;;;;;;;17.93;2.50;;;14.70;99.90;;;;;;5032379;28;20669;-61
2022/08/21 01:11:10;;;;;;;61.07;3.87;;;14.60;99.90;;;;;;5030738;28;20767;-60
2022/08/21 01:13:39;;;;;;;17.77;3.00;;;14.60;99.90;;;;;;5026589;28;20557;-59
2022/08/21 01:16:08;;;;;;;30.97;3.00;;;14.60;99.90;;;;;;5023208;28;20269;-61
2022/08/21 01:18:34;;;;;;;37.27;3.10;;;14.50;99.90;;;;;;5013704;28;20431;-61
2022/08/21 01:21:03;;;;;;;176.07;8.87;;;14.50;99.90;;;;;;5015919;28;20430;-61
2022/08/21 01:23:29;;;;;;;31.87;3.47;;;14.50;99.90;;;;;;5029005;28;20176;-61
2022/08/21 01:25:54;;;;;;;6.93;2.50;;;14.40;99.90;;;;;;5029954;28;20500;-60
2022/08/21 01:28:21;;;;;;;11.43;2.80;;;14.40;99.90;;;;;;5032231;28;20242;-60
2022/08/21 01:30:50;;;;;;;74.77;4.23;;;14.40;99.90;;;;;;5030959;28;20211;-60
2022/08/21 01:33:19;;;;;;;15.57;2.90;;;14.40;99.90;;;;;;5025019;28;20445;-59
2022/08/21 01:35:45;;;;;;;6.93;2.43;;;14.30;99.90;;;;;;5029959;28;20474;-60
2022/08/21 01:38:11;;;;;;;34.40;3.60;;;14.30;99.90;;;;;;5031984;28;20509;-60
2022/08/21 01:40:36;;;;;;;13.13;2.47;;;14.30;99.90;;;;;;5030739;28;20233;-59
2022/08/21 01:43:02;;;;;;;4.80;2.33;;;14.30;99.90;;;;;;5027713;28;20641;-61
2022/08/21 01:45:28;;;;;;;13.27;2.63;;;14.30;99.90;;;;;;5009714;28;20250;-61
2022/08/21 01:47:54;;;;;;;2.97;2.07;;;14.30;99.90;;;;;;5030813;28;20442;-62
2022/08/21 01:50:20;;;;;;;4.53;2.30;;;14.30;99.90;;;;;;5023311;28;20365;-61
2022/08/21 01:52:47;;;;;;;4.23;2.50;;;14.30;99.90;;;;;;5026967;28;20188;-62
2022/08/21 01:55:14;;;;;;;4.50;1.93;;;14.30;99.90;;;;;;5021686;28;20469;-61
2022/08/21 01:57:40;;;;;;;2.43;2.23;;;14.30;99.90;;;;;;5029042;28;20698;-62
2022/08/21 02:00:09;;;;;;;3.90;2.27;;;14.30;99.90;;;;;;5022581;28;20854;-62
2022/08/21 02:02:35;;;;;;;9.60;2.40;;;14.30;99.90;;;;;;5029064;28;20720;-61
2022/08/21 02:05:01;;;;;;;6.23;2.10;;;14.40;99.90;;;;;;5013983;28;20606;-62
2022/08/21 02:07:26;;;;;;;5.93;2.20;;;14.40;99.90;;;;;;5027384;28;20191;-61
2022/08/21 02:09:52;;;;;;;2.60;2.10;;;14.40;99.90;;;;;;5030299;28;20194;-61
2022/08/21 02:12:17;;;;;;;4.17;1.80;;;14.40;99.90;;;;;;5028783;28;20554;-60
2022/08/21 02:14:43;;;;;;;3.53;1.97;;;14.40;99.90;;;;;;5013572;28;20284;-61
2022/08/21 02:17:09;;;;;;;1.87;1.77;;;14.30;99.90;;;;;;5020762;28;20184;-62
2022/08/21 02:19:34;;;;;;;3.93;1.90;;;14.30;99.90;;;;;;5026337;28;20708;-61
2022/08/21 02:22:00;;;;;;;2.70;1.97;;;14.30;99.90;;;;;;5026313;28;20187;-61
2022/08/21 02:24:25;;;;;;;16.03;2.93;;;14.30;99.90;;;;;;5016002;28;20185;-60
2022/08/21 02:26:51;;;;;;;15.30;2.20;;;14.20;99.90;;;;;;5018382;28;20188;-60
2022/08/21 02:29:17;;;;;;;4.60;2.50;;;14.20;99.90;;;;;;5022241;28;20187;-60
2022/08/21 02:31:42;;;;;;;15.80;2.57;;;14.20;99.90;;;;;;5023810;28;20184;-61
2022/08/21 02:34:08;;;;;;;9.57;2.10;;;14.20;99.90;;;;;;5021398;28;20183;-61
2022/08/21 02:36:34;;;;;;;6.47;2.33;;;14.20;99.90;;;;;;5025546;28;20285;-60
2022/08/21 02:39:00;;;;;;;8.47;2.20;;;14.20;99.90;;;;;;5031346;28;20836;-61
2022/08/21 02:41:25;;;;;;;24.43;2.83;;;14.10;99.90;;;;;;5029398;28;20585;-62
2022/08/21 02:43:51;;;;;;;44.97;3.23;;;14.10;99.90;;;;;;5022182;28;20199;-61
2022/08/21 02:46:19;;;;;;;10.07;2.10;;;14.10;99.90;;;;;;5017015;28;20265;-60
2022/08/21 02:48:46;;;;;;;17.30;2.40;;;14.00;99.90;;;;;;5030673;28;20182;-60
2022/08/21 02:51:17;;;;;;;20.30;2.40;;;14.00;99.90;;;;;;5019263;28;20521;-60
2022/08/21 02:53:44;;;;;;;19.43;2.57;;;13.90;99.90;;;;;;5025800;28;20522;-60
2022/08/21 02:56:14;;;;;;;6.10;1.70;;;13.90;99.90;;;;;;5027978;28;20470;-60
2022/08/21 02:58:44;;;;;;;12.30;2.30;;;13.90;99.90;;;;;;5030005;28;20427;-61
2022/08/21 03:01:10;;;;;;;51.43;4.33;;;13.90;99.90;;;;;;5030000;28;20486;-61
2022/08/21 03:03:39;;;;;;;33.53;3.27;;;13.90;99.90;;;;;;5026116;28;20442;-61
2022/08/21 03:06:06;;;;;;;39.33;3.07;;;13.80;99.90;;;;;;5014910;28;20536;-61
2022/08/21 03:08:31;;;;;;;20.80;2.40;;;13.80;99.90;;;;;;5028502;28;20439;-60
2022/08/21 03:10:59;;;;;;;29.83;3.00;;;13.80;99.90;;;;;;5030324;28;20411;-60
2022/08/21 03:13:25;;;;;;;27.97;2.27;;;13.70;99.90;;;;;;5025969;28;20187;-60
2022/08/21 03:15:50;;;;;;;20.87;2.50;;;13.70;99.90;;;;;;5027287;28;20466;-59
2022/08/21 03:18:16;;;;;;;5.93;1.70;;;13.60;99.90;;;;;;5030619;28;20176;-59
2022/08/21 03:20:44;;;;;;;33.77;3.70;;;13.60;99.90;;;;;;5025556;28;20645;-61
2022/08/21 03:23:11;;;;;;;16.50;2.37;;;13.60;99.90;;;;;;5018568;28;20675;-61
2022/08/21 03:25:37;;;;;;;50.00;3.40;;;13.60;99.90;;;;;;5009520;28;20427;-60
2022/08/21 03:28:05;;;;;;;10.03;2.40;;;13.60;99.90;;;;;;5020416;28;20430;-60
2022/08/21 03:30:31;;;;;;;29.93;2.80;;;13.60;99.90;;;;;;5028837;28;20454;-62
2022/08/21 03:33:00;;;;;;;26.43;2.63;;;13.50;99.90;;;;;;5021855;28;20439;-62
2022/08/21 03:35:27;;;;;;;26.97;3.33;;;13.50;99.90;;;;;;5008892;28;20236;-62
2022/08/21 03:37:53;;;;;;;30.70;2.70;;;13.50;99.90;;;;;;5025906;28;20433;-62
2022/08/21 03:40:20;;;;;;;32.47;2.67;;;13.50;99.90;;;;;;5029899;28;20488;-62
2022/08/21 03:42:46;;;;;;;81.73;3.50;;;13.50;99.90;;;;;;5020880;28;20434;-62
2022/08/21 03:45:15;;;;;;;40.43;2.87;;;13.40;99.90;;;;;;5022521;28;21152;-61
2022/08/21 03:47:55;;;;;;;32.70;3.10;;;13.40;99.90;;;;;;5028314;28;20796;-61
2022/08/21 03:50:22;;;;;;;9.93;2.00;;;13.30;99.90;;;;;;5029027;28;20421;-63
2022/08/21 03:52:48;;;;;;;47.87;4.60;;;13.30;99.90;;;;;;5025624;28;20499;-62
2022/08/21 03:55:14;;;;;;;20.30;2.20;;;13.30;99.90;;;;;;5018214;28;20471;-60
2022/08/21 03:57:40;;;;;;;21.00;2.83;;;13.30;99.90;;;;;;5016657;28;20191;-62
2022/08/21 04:00:09;;;;;;;43.47;3.20;;;13.30;99.90;;;;;;5026026;28;20187;-62
2022/08/21 04:02:35;;;;;;;35.67;2.37;;;13.30;99.90;;;;;;5018125;28;20211;-62
2022/08/21 04:05:01;;;;;;;4.67;2.10;;;13.30;99.90;;;;;;5021163;28;20446;-62
2022/08/21 04:07:27;;;;;;;19.17;1.90;;;13.30;99.90;;;;;;5010954;28;20432;-62
2022/08/21 04:09:53;;;;;;;52.20;5.17;;;13.30;99.90;;;;;;5029341;28;20505;-62
2022/08/21 04:12:19;;;;;;;79.60;4.00;;;13.30;99.90;;;;;;5025149;28;20661;-62
2022/08/21 04:14:44;;;;;;;42.70;2.67;;;13.20;99.90;;;;;;5026761;28;20203;-62
2022/08/21 04:17:10;;;;;;;83.63;5.00;;;13.20;99.90;;;;;;5027742;28;20520;-61
2022/08/21 04:19:35;;;;;;;74.97;3.90;;;13.20;99.90;;;;;;5029064;28;20225;-61
2022/08/21 04:22:01;;;;;;;48.77;3.30;;;13.20;99.90;;;;;;5014338;28;20168;-61
2022/08/21 04:24:27;;;;;;;92.90;6.10;;;13.20;99.90;;;;;;5025170;28;20192;-61
2022/08/21 04:26:52;;;;;;;15.83;2.20;;;13.20;99.90;;;;;;5027289;28;20187;-61
2022/08/21 04:29:18;;;;;;;64.13;3.60;;;13.20;99.90;;;;;;5029061;28;20661;-60
2022/08/21 04:31:44;;;;;;;19.57;2.77;;;13.10;99.90;;;;;;5018707;28;20653;-61
2022/08/21 04:34:10;;;;;;;6.17;2.30;;;13.10;99.90;;;;;;5018803;28;20439;-62
2022/08/21 04:36:35;;;;;;;17.07;2.60;;;13.10;99.90;;;;;;5025340;28;20199;-60
2022/08/21 04:39:01;;;;;;;44.27;2.93;;;13.10;99.90;;;;;;5028430;28;20175;-61
2022/08/21 04:41:27;;;;;;;19.63;2.10;;;13.20;99.90;;;;;;5029196;28;20171;-61
2022/08/21 04:43:54;;;;;;;14.13;2.37;;;13.20;99.90;;;;;;5027144;28;20168;-59
2022/08/21 04:46:21;;;;;;;12.97;2.03;;;13.20;99.90;;;;;;5024504;28;20666;-60
2022/08/21 04:48:46;;;;;;;10.83;2.30;;;13.20;99.90;;;;;;5024375;28;20770;-60
2022/08/21 04:51:19;;;;;;;9.43;2.00;;;13.20;99.90;;;;;;5026457;28;20434;-60
2022/08/21 04:53:53;;;;;;;2.77;1.80;;;13.20;99.90;;;;;;5027688;28;20199;-59
2022/08/21 04:56:31;;;;;;;6.53;2.20;;;13.20;99.90;;;;;;5028379;28;20824;-60
2022/08/21 04:59:03;;;;;;;2.13;1.90;;;13.20;99.90;;;;;;5025272;28;20418;-60
2022/08/21 05:01:33;;;;;;;4.20;2.13;;;13.20;99.90;;;;;;5019176;28;20439;-60
2022/08/21 05:04:00;;;;;;;3.40;2.00;;;13.20;99.90;;;;;;5025355;28;20438;-60
2022/08/21 05:06:30;;;;;;;3.90;2.37;;;13.20;99.90;;;;;;5025120;28;20449;-60
2022/08/21 05:08:57;;;;;;;9.00;1.97;;;13.20;99.90;;;;;;5017040;28;20430;-61
2022/08/21 05:11:22;;;;;;;5.50;2.10;;;13.20;99.90;;;;;;5027066;28;20423;-60
2022/08/21 05:13:49;;;;;;;12.57;2.00;;;13.20;99.90;;;;;;5019270;28;20510;-59
2022/08/21 05:16:15;;;;;;;27.63;2.40;;;13.20;99.90;;;;;;5014858;28;20298;-59
2022/08/21 05:18:41;;;;;;;2.60;1.73;;;13.20;99.90;;;;;;5015565;28;21006;-59
2022/08/21 05:21:07;;;;;;;3.13;1.90;;;13.10;99.90;;;;;;5029905;28;20506;-59
2022/08/21 05:23:33;;;;;;;3.10;1.87;;;13.10;99.90;;;;;;5029621;28;20422;-59
2022/08/21 05:26:00;;;;;;;1.70;1.60;;;13.20;99.90;;;;;;5024332;28;20204;-59
2022/08/21 05:28:26;;;;;;;14.83;2.13;;;13.20;99.90;;;;;;5029720;28;20184;-61
2022/08/21 05:30:52;;;;;;;78.90;6.23;;;13.20;99.90;;;;;;5016324;28;20426;-59
2022/08/21 05:33:18;;;;;;;2.60;2.07;;;13.20;99.90;;;;;;5026886;28;20797;-61
2022/08/21 05:35:44;;;;;;;35.57;2.70;;;13.20;99.90;;;;;;5024668;28;20466;-61
2022/08/21 05:38:10;;;;;;;2.53;1.83;;;13.10;99.90;;;;;;5015980;28;20596;-61
2022/08/21 05:40:36;;;;;;;28.20;2.70;;;13.10;99.90;;;;;;5031637;28;20425;-62
2022/08/21 05:43:03;;;;;;;10.27;2.13;;;13.10;99.90;;;;;;5024962;28;20184;-61
2022/08/21 05:45:32;;;;;;;46.43;3.53;;;13.10;99.90;;;;;;5023026;28;20283;-62
2022/08/21 05:48:04;;;;;;;6.93;1.90;;;13.10;99.90;;;;;;5030816;28;20440;-64
2022/08/21 05:50:31;;;;;;;4.00;1.90;;;13.10;99.90;;;;;;5032026;28;20407;-64
2022/08/21 05:52:56;;;;;;;2.17;1.80;;;13.10;99.90;;;;;;5025548;28;20445;-63
2022/08/21 05:55:22;;;;;;;3.10;2.00;;;13.20;99.90;;;;;;5030058;28;20999;-62
2022/08/21 05:57:47;;;;;;;4.03;1.77;;;13.20;99.90;;;;;;5030396;28;20233;-61
2022/08/21 06:00:14;;;;;;;4.60;1.90;;;13.20;99.90;;;;;;5031503;28;20164;-63
2022/08/21 06:02:40;;;;;;;1.90;1.80;;;13.20;99.90;;;;;;5028341;28;20175;-62
2022/08/21 06:05:06;;;;;;;34.70;3.13;;;13.20;99.90;;;;;;5015368;28;20435;-60
2022/08/21 06:07:32;;;;;;;41.83;3.80;;;13.20;99.90;;;;;;5027614;28;20460;-60
2022/08/21 06:09:57;;;;;;;3.50;2.20;;;13.20;99.90;;;;;;5031541;28;20414;-61
2022/08/21 06:12:23;;;;;;;3.33;2.10;;;13.10;99.90;;;;;;5020872;28;20258;-61
2022/08/21 06:14:50;;;;;;;10.63;2.53;;;13.10;99.90;;;;;;5015727;28;20215;-62
2022/08/21 06:17:16;;;;;;;5.47;2.10;;;13.20;99.90;;;;;;5027763;28;20262;-62
2022/08/21 06:19:41;;;;;;;2.20;2.00;;;13.20;99.90;;;;;;5031267;28;20525;-62
2022/08/21 06:22:07;;;;;;;1.90;1.80;;;13.20;99.90;;;;;;5026682;28;20993;-62
2022/08/21 06:24:33;;;;;;;1.90;1.80;;;13.30;99.90;;;;;;5029425;28;20648;-62
2022/08/21 06:27:07;;;;;;;3.53;2.10;;;13.30;99.90;;;;;;5029979;28;20203;-63
2022/08/21 06:29:34;;;;;;;1.93;1.80;;;13.40;99.90;;;;;;5031247;28;20524;-61
2022/08/21 06:31:59;;;;;;;3.73;2.17;;;13.40;99.90;;;;;;5026595;28;20457;-62
2022/08/21 06:34:25;;;;;;;2.03;1.93;;;13.40;99.90;;;;;;5011764;28;20497;-62
2022/08/21 06:36:51;;;;;;;3.10;2.27;;;13.40;99.90;;;;;;5027596;28;20211;-60
2022/08/21 06:39:16;;;;;;;5.07;2.20;;;13.50;99.90;;;;;;5025394;28;20164;-62
2022/08/21 06:41:42;;;;;;;2.20;2.00;;;13.50;99.90;;;;;;5028629;28;20172;-62
2022/08/21 06:44:07;;;;;;;2.77;2.43;;;13.50;99.90;;;;;;5021402;28;20176;-61
2022/08/21 06:46:33;;;;;;;2.50;2.20;;;13.60;99.90;;;;;;5020735;28;20192;-61
2022/08/21 06:48:59;;;;;;;8.63;2.70;;;13.70;99.90;;;;;;5030936;28;20176;-61
2022/08/21 06:51:25;;;;;;;3.23;2.73;;;13.80;99.90;;;;;;5027647;28;20188;-61
2022/08/21 06:53:52;;;;;;;5.13;3.53;;;13.90;99.90;;;;;;5027579;28;20270;-61
2022/08/21 06:56:18;;;;;;;5.13;3.60;;;13.90;99.90;;;;;;5028681;28;20502;-61
2022/08/21 06:58:44;;;;;;;5.40;3.20;;;13.90;99.90;;;;;;5030485;28;20423;-61
2022/08/21 07:01:10;;;;;;;3.50;2.67;;;14.00;99.90;;;;;;5027023;28;20655;-63
2022/08/21 07:03:39;;;;;;;2.70;2.20;;;14.20;99.90;;;;;;5021156;28;20275;-63
2022/08/21 07:06:06;;;;;;;3.40;2.73;;;14.30;99.90;;;;;;5027388;28;20769;-63
2022/08/21 07:08:32;;;;;;;2.70;2.50;;;14.50;99.90;;;;;;5028713;28;20430;-62
2022/08/21 07:11:00;;;;;;;2.63;2.33;;;14.60;99.90;;;;;;5030501;28;20399;-63
2022/08/21 07:13:26;;;;;;;2.70;2.37;;;14.80;99.90;;;;;;5014942;28;20278;-63
2022/08/21 07:15:52;;;;;;;3.00;2.17;;;14.90;99.90;;;;;;5012948;28;20462;-60
2022/08/21 07:18:18;;;;;;;2.43;2.23;;;15.00;99.90;;;;;;5023907;28;20423;-61
2022/08/21 07:20:45;;;;;;;3.27;2.40;;;15.10;99.90;;;;;;5030132;28;20184;-61
2022/08/21 07:23:21;;;;;;;1.83;1.73;;;15.10;99.90;;;;;;5027630;28;20870;-61
2022/08/21 07:25:47;;;;;;;2.50;2.00;;;15.10;99.90;;;;;;5022168;28;20450;-60
2022/08/21 07:28:12;;;;;;;2.23;2.03;;;15.20;99.90;;;;;;5023006;28;20475;-61
2022/08/21 07:30:38;;;;;;;2.83;2.63;;;15.30;99.90;;;;;;5023573;28;20733;-61
2022/08/21 07:33:04;;;;;;;2.87;2.67;;;15.30;99.90;;;;;;5025143;28;20184;-61
2022/08/21 07:35:31;;;;;;;2.67;2.40;;;15.30;99.90;;;;;;5027535;28;20283;-62
2022/08/21 07:37:56;;;;;;;4.20;2.53;;;15.30;99.90;;;;;;5020031;28;20718;-61
2022/08/21 07:40:22;;;;;;;3.17;2.60;;;15.40;99.90;;;;;;5025729;28;20419;-61
2022/08/21 07:42:51;;;;;;;5.83;2.63;;;15.40;99.90;;;;;;5028607;28;20245;-62
2022/08/21 07:45:21;;;;;;;4.90;3.10;;;15.60;99.90;;;;;;5027625;28;20202;-62
2022/08/21 07:47:48;;;;;;;3.17;2.50;;;15.70;99.90;;;;;;5029760;28;20934;-61
2022/08/21 07:50:14;;;;;;;6.60;2.80;;;15.80;99.90;;;;;;5027104;28;20785;-63
2022/08/21 07:52:41;;;;;;;8.20;2.57;;;15.80;99.90;;;;;;5023752;28;20435;-62
2022/08/21 07:55:09;;;;;;;12.73;3.50;;;15.80;99.90;;;;;;5026279;28;20451;-61
2022/08/21 07:57:35;;;;;;;6.40;2.80;;;15.70;99.90;;;;;;5021958;28;20492;-61
2022/08/21 08:00:03;;;;;;;7.70;3.30;;;15.80;99.90;;;;;;5028564;28;20431;-61
2022/08/21 08:02:29;;;;;;;9.30;4.17;;;15.90;99.90;;;;;;5028080;28;20175;-61
2022/08/21 08:05:03;;;;;;;6.50;3.80;;;16.00;99.90;;;;;;5027252;28;20438;-62
2022/08/21 08:07:29;;;;;;;4.80;3.10;;;16.20;99.90;;;;;;5021597;28;20453;-62
2022/08/21 08:09:55;;;;;;;12.80;3.03;;;16.40;99.90;;;;;;5023210;28;20521;-63
2022/08/21 08:12:21;;;;;;;4.73;2.80;;;16.60;99.90;;;;;;5024853;28;20255;-63
2022/08/21 08:14:46;;;;;;;4.90;3.27;;;16.60;99.90;;;;;;5024136;28;20549;-62
2022/08/21 08:17:13;;;;;;;4.77;3.03;;;16.60;99.90;;;;;;5029640;28;20204;-64
2022/08/21 08:19:39;;;;;;;5.83;2.90;;;16.70;99.90;;;;;;5016227;28;20246;-62
2022/08/21 08:22:20;;;;;;;5.40;3.17;;;16.80;99.90;;;;;;5027185;28;20453;-62
2022/08/21 08:24:48;;;;;;;4.47;2.90;;;16.90;99.90;;;;;;5027835;28;20434;-62
2022/08/21 08:27:14;;;;;;;3.70;2.77;;;17.10;99.90;;;;;;5027427;28;20518;-62
2022/08/21 08:29:40;;;;;;;5.27;2.90;;;17.20;99.90;;;;;;5020741;28;20427;-62
2022/08/21 08:32:09;;;;;;;4.53;3.50;;;17.30;99.90;;;;;;5029735;28;20767;-63
2022/08/21 08:34:36;;;;;;;4.10;3.30;;;17.50;99.90;;;;;;5028439;28;20195;-63
2022/08/21 08:37:02;;;;;;;4.33;3.07;;;17.70;99.90;;;;;;5026985;28;20489;-63
2022/08/21 08:39:28;;;;;;;3.80;2.83;;;17.90;99.90;;;;;;5022585;28;20470;-63
2022/08/21 08:42:15;;;;;;;6.40;3.57;;;17.90;99.90;;;;;;5025776;28;20909;-64
2022/08/21 08:44:45;;;;;;;9.60;3.63;;;18.10;99.90;;;;;;5026397;28;20740;-64
2022/08/21 08:47:13;;;;;;;4.50;3.27;;;18.20;99.90;;;;;;5022891;28;20416;-64
2022/08/21 08:49:57;;;;;;;10.07;2.97;;;18.20;99.90;;;;;;5020435;28;20960;-64
2022/08/21 08:52:28;;;;;;;6.53;2.60;;;18.30;99.90;;;;;;5027405;28;20438;-63
2022/08/21 08:55:14;;;;;;;3.73;2.70;;;18.40;99.90;;;;;;5019991;28;20550;-62
2022/08/21 08:57:44;;;;;;;5.50;2.80;;;18.60;99.90;;;;;;5031545;28;20433;-63
2022/08/21 09:00:13;;;;;;;5.97;2.93;;;18.80;99.90;;;;;;5026557;28;20445;-62
2022/08/21 09:02:40;;;;;;;6.73;2.63;;;19.00;99.90;;;;;;5030907;28;20453;-62
2022/08/21 09:05:07;;;;;;;7.00;3.30;;;19.10;99.90;;;;;;5029244;28;20499;-63
2022/08/21 09:07:33;;;;;;;8.93;2.70;;;19.30;99.90;;;;;;5031099;28;20422;-64
2022/08/21 09:10:05;;;;;;;6.83;3.10;;;19.40;99.90;;;;;;5027291;28;20426;-64
2022/08/21 09:12:55;;;;;;;5.80;3.70;;;19.50;99.90;;;;;;5031288;28;20171;-62
2022/08/21 09:15:29;;;;;;;5.17;2.30;;;19.80;99.90;;;;;;5019957;28;20869;-63
2022/08/21 09:18:16;;;;;;;5.23;3.00;;;19.90;99.60;;;;;;5019750;28;20435;-61
2022/08/21 09:20:45;;;;;;;2.53;2.10;;;20.10;97.80;;;;;;5021946;28;20430;-60
2022/08/21 09:23:29;;;;;;;3.57;2.53;;;20.30;93.20;;;;;;5023855;28;20909;-61
2022/08/21 09:26:00;;;;;;;3.43;2.43;;;20.50;91.90;;;;;;5020200;28;20542;-61
2022/08/21 09:28:26;;;;;;;4.57;2.57;;;20.60;87.20;;;;;;5029621;28;20462;-62
2022/08/21 09:30:55;;;;;;;3.43;2.10;;;20.70;83.00;;;;;;5027536;28;20466;-61
2022/08/21 09:33:21;;;;;;;4.97;2.43;;;20.80;81.70;;;;;;5019392;28;20180;-62
2022/08/21 09:35:53;;;;;;;4.03;2.67;;;20.90;79.10;;;;;;5029446;28;21030;-60
2022/08/21 09:38:36;;;;;;;9.70;2.17;;;21.00;76.90;;;;;;5030587;28;20423;-62
2022/08/21 09:41:08;;;;;;;3.27;2.20;;;21.10;72.80;;;;;;5025880;28;20434;-62
2022/08/21 09:43:35;;;;;;;5.77;2.67;;;21.30;75.80;;;;;;5031751;28;20403;-61
2022/08/21 09:46:21;;;;;;;3.67;2.30;;;21.40;76.00;;;;;;5028336;28;20772;-61
2022/08/21 09:48:53;;;;;;;5.80;2.53;;;21.40;60.50;;;;;;5022498;28;20446;-62
2022/08/21 09:51:31;;;;;;;11.67;2.50;;;21.40;61.30;;;;;;5021284;28;20434;-62
2022/08/21 09:54:08;;;;;;;5.80;2.70;;;21.40;67.20;;;;;;5026041;28;20485;-61
2022/08/21 09:59:40;;;;;;;2.50;2.20;;;21.60;74.50;;;;;;5018447;28;20496;-61
2022/08/21 10:02:28;;;;;;;6.00;2.23;;;21.80;76.30;;;;;;5024072;28;20428;-56
2022/08/21 10:05:18;;;;;;;8.17;2.53;;;22.10;74.50;;;;;;5017562;28;20464;-62
2022/08/21 10:07:44;;;;;;;5.43;2.67;;;22.30;75.10;;;;;;5013258;28;20442;-63
2022/08/21 10:10:23;;;;;;;5.63;2.80;;;22.40;66.80;;;;;;5026946;28;20446;-59
2022/08/21 10:13:20;;;;;;;3.27;2.27;;;22.60;70.80;;;;;;5012067;28;20176;-60
2022/08/21 10:15:46;;;;;;;1.73;1.63;;;22.80;71.80;;;;;;5028221;28;20473;-60
2022/08/21 10:18:35;;;;;;;2.87;2.20;;;23.00;70.20;;;;;;5028242;28;20410;-63
2022/08/21 10:21:21;;;;;;;4.03;1.87;;;23.10;64.70;;;;;;5029155;28;20195;-60
2022/08/21 10:24:04;;;;;;;2.50;1.90;;;23.20;63.10;;;;;;5015085;28;20514;-60
2022/08/21 10:26:43;;;;;;;3.77;2.03;;;23.30;62.50;;;;;;5029757;28;20962;-61
2022/08/21 10:29:21;;;;;;;2.73;1.90;;;23.40;63.50;;;;;;5025193;28;20433;-61
2022/08/21 10:32:08;;;;;;;4.00;2.23;;;23.50;65.30;;;;;;5017720;28;20467;-61
2022/08/21 10:34:58;;;;;;;4.67;2.40;;;23.50;61.90;;;;;;5027451;28;20978;-61
2022/08/21 10:38:00;;;;;;;5.20;2.23;;;23.30;59.70;;;;;;5023622;28;20437;-62
2022/08/21 10:40:44;;;;;;;5.50;2.43;;;23.20;60.40;;;;;;5030820;28;20414;-62
2022/08/21 10:43:34;;;;;;;4.80;1.87;;;23.30;62.00;;;;;;5026073;28;20477;-62
2022/08/21 10:46:00;;;;;;;2.10;1.90;;;23.50;63.00;;;;;;5031914;28;20441;-60
2022/08/21 10:48:36;;;;;;;4.50;2.10;;;23.60;62.20;;;;;;5027575;28;20444;-62
2022/08/21 10:51:09;;;;;;;8.10;1.70;;;23.80;59.30;;;;;;5027628;28;20401;-56
2022/08/21 10:54:04;;;;;;;4.17;2.27;;;24.00;58.00;;;;;;5025845;28;20947;-56
2022/08/21 10:56:33;;;;;;;2.43;2.10;;;24.20;58.60;;;;;;5022022;28;20463;-57
2022/08/21 10:59:33;;;;;;;8.33;2.30;;;24.40;58.30;;;;;;5017916;28;20434;-56
2022/08/21 11:02:32;;;;;;;4.03;2.00;;;24.70;59.40;;;;;;5020873;28;20881;-57
2022/08/21 11:05:01;;;;;;;3.87;2.00;;;24.70;58.50;;;;;;5016868;28;20454;-58
2022/08/21 11:07:37;;;;;;;4.60;2.10;;;24.70;55.70;;;;;;5021043;28;20953;-57
2022/08/21 11:10:14;;;;;;;3.73;2.00;;;24.70;55.00;;;;;;5022132;28;20438;-56
2022/08/21 11:12:50;;;;;;;4.73;2.70;;;24.70;52.70;;;;;;5026449;28;20434;-56
2022/08/21 11:15:46;;;;;;;3.30;1.73;;;24.80;53.90;;;;;;5028810;28;20449;-58
2022/08/21 11:18:27;;;;;;;3.37;1.50;;;24.90;51.60;;;;;;5020203;28;20952;-57
2022/08/21 11:21:05;;;;;;;3.20;1.67;;;24.90;51.60;;;;;;5024641;28;20957;-57
2022/08/21 11:23:49;;;;;;;1.63;1.43;;;25.00;52.00;;;;;;5025790;28;20525;-57
2022/08/21 11:26:22;;;;;;;2.30;1.50;;;25.20;51.70;;;;;;5023360;28;20453;-58
2022/08/21 11:29:27;;;;;;;3.00;1.60;;;25.30;50.60;;;;;;5026005;28;20873;-58
2022/08/21 11:32:03;;;;;;;2.17;1.80;;;25.40;51.60;;;;;;5019601;28;20445;-58
2022/08/21 11:34:45;;;;;;;19.43;12.20;;;25.60;49.60;;;;;;5024677;28;20475;-58
2022/08/21 11:37:16;;;;;;;6.33;2.00;;;25.60;49.50;;;;;;5022250;28;20507;-61
2022/08/21 11:39:54;;;;;;;2.50;1.80;;;25.60;48.90;;;;;;5023612;28;20990;-59
2022/08/21 11:42:29;;;;;;;2.60;2.10;;;25.60;48.30;;;;;;5024106;28;20425;-59
2022/08/21 11:45:22;;;;;;;6.03;1.67;;;25.60;47.20;;;;;;5023188;28;20453;-60
2022/08/21 11:48:03;;;;;;;1.80;1.70;;;25.30;47.60;;;;;;5018742;28;20464;-63
2022/08/21 11:50:31;;;;;;;2.77;1.53;;;25.00;47.80;;;;;;5016692;28;20946;-64
2022/08/21 11:53:00;;;;;;;2.57;1.60;;;24.90;49.10;;;;;;5022267;28;20803;-63
2022/08/21 11:55:40;;;;;;;3.67;1.67;;;25.10;48.20;;;;;;5024782;28;20454;-63
2022/08/21 11:58:13;;;;;;;2.90;2.30;;;25.40;50.10;;;;;;5026980;28;20418;-63
2022/08/21 12:00:46;;;;;;;3.60;1.87;;;25.70;49.20;;;;;;5027767;28;20484;-65
2022/08/21 12:03:16;;;;;;;2.67;2.03;;;26.00;47.60;;;;;;5024246;28;20445;-64
2022/08/21 12:06:22;;;;;;;2.13;1.93;;;26.20;45.90;;;;;;5026118;28;20534;-63
2022/08/21 12:09:02;;;;;;;2.83;1.80;;;26.30;45.90;;;;;;5023766;28;20446;-64
2022/08/21 12:11:28;;;;;;;2.00;1.50;;;26.50;45.10;;;;;;5026734;28;20479;-66
2022/08/21 12:14:00;;;;;;;4.70;1.97;;;26.70;45.60;;;;;;5020888;28;20961;-62
2022/08/21 12:16:35;;;;;;;4.73;1.90;;;26.90;45.60;;;;;;5019567;28;20294;-63
2022/08/21 12:19:04;;;;;;;2.23;1.53;;;27.10;45.30;;;;;;5031883;28;20414;-64
2022/08/21 12:21:30;;;;;;;2.70;1.63;;;27.40;46.00;;;;;;5025383;28;20502;-63
2022/08/21 12:24:04;;;;;;;3.07;1.63;;;27.70;45.50;;;;;;5018471;28;20525;-64
2022/08/21 12:26:34;;;;;;;1.93;1.67;;;27.90;45.30;;;;;;5028498;28;20190;-66
2022/08/21 12:29:12;;;;;;;3.47;1.80;;;28.00;42.40;;;;;;5024607;28;20179;-65
2022/08/21 12:31:50;;;;;;;2.40;1.60;;;28.10;40.90;;;;;;5027381;28;20702;-65
2022/08/21 12:34:17;;;;;;;2.20;1.60;;;28.20;41.90;;;;;;5027409;28;20648;-65
2022/08/21 12:36:48;;;;;;;3.57;1.83;;;28.00;42.00;;;;;;5026901;28;20569;-62
2022/08/21 12:39:23;;;;;;;4.50;1.97;;;27.90;43.40;;;;;;5026658;28;20668;-66
2022/08/21 12:41:55;;;;;;;4.87;1.87;;;28.10;43.10;;;;;;5028744;28;20698;-64
2022/08/21 12:44:35;;;;;;;2.53;1.90;;;28.10;42.50;;;;;;5026288;28;20258;-62
2022/08/21 12:47:21;;;;;;;2.97;1.40;;;28.30;43.40;;;;;;5024371;28;20179;-64
2022/08/21 12:50:08;;;;;;;1.80;1.47;;;28.50;43.80;;;;;;5022708;28;20179;-63
2022/08/21 12:52:40;;;;;;;3.50;2.00;;;28.70;44.50;;;;;;5021919;28;20699;-62
2022/08/21 12:55:11;;;;;;;1.90;1.73;;;28.70;42.70;;;;;;5016188;28;20226;-65
2022/08/21 12:57:37;;;;;;;1.77;1.50;;;28.70;40.60;;;;;;5025128;28;20206;-65
2022/08/21 13:00:11;;;;;;;1.40;1.30;;;28.60;41.50;;;;;;5025743;28;20230;-64